Αναφορές METAR από Ελληνικά Αεροδρόμια

Σε αυτή τη σελίδα, μπορείτε να παρακολουθείτε τις αναφορές METAR που προέρχονται από τα κυριότερα αεροδρόμια της Ελλάδας. Το περιεχόμενο αποκωδικοποιείται, οπτικοποιείται και γίνεται κατανοητό από τον καθένα με τη χρήση του όμορφου δίγλωσσου γραφικού περιβάλλοντος του meteothes.gr!

Η αρχική κωδικοποιημένη αναφορά, συμπεριλαμβάνεται επίσης στο κάτω μέρος. Σε όποια καθεστερεί η ενημέρωση, το προειδοποιητικό μήνυμα "Μη ενημερωμένο METAR!" εμφανίζεται στο πάνω μέρος της με κόκκινα γράμματα.

Εχουν προστεθεί επίσης δύο αεροδρόμια από γειτονικές χώρες, την Οχρίδα(ΠΓΔΜ) και την Σόφια(Βουλγαρία) για να ελέγχουμε την εξέλιξη των ψυχρών εισβολών από τα Βόρεια!

LGTS - Thessaloniki/Makedonia-Elev 7m
Απόσταση από meteothes.gr: Ν 13km
Ενημερώθηκε: 28/10/2021 17:20
Διάσπαρτα Nέφη
Διάσπαρτα Nέφη
 Ανεμος από Δ
Ανεμος: Δ 9 km/h
Θερμοκρασία: 17°C
Σημ. Δρόσου: 8°C
Υγρασία: 56%
Βαρόμετρο: 1024 hPa
Νέφωση: Διάσπαρτα Nέφη
Ορατότητα: 10 km
Λεπτομέρειες Νεφών: Διάσπαρτα Nέφη 762 m
2021/10/28 14:20 LGTS 281420Z 28005KT 9999 FEW025 17/08 Q1024 NOSIG
LGAV - Athens/Elef. Venizelos-Elev 94m
Απόσταση από meteothes.gr: ΝΝΑ 312km
Ενημερώθηκε: 28/10/2021 17:50
Διάσπαρτα Nέφη
Διάσπαρτα Nέφη
 Ανεμος από Β
Ανεμος: Β 26 km/h
Θερμοκρασία: 16°C
Σημ. Δρόσου: 8°C
Υγρασία: 59%
Βαρόμετρο: 1021 hPa
Νέφωση: Διάσπαρτα Nέφη
Ορατότητα: 10 km
Λεπτομέρειες Νεφών: Διάσπαρτα Nέφη 914 m
2021/10/28 14:50 LGAV 281450Z 01014KT 9999 FEW030 16/08 Q1021 NOSIG
 
LGAL - Alexandroupolis-Elev 3m
Απόσταση από meteothes.gr: Α 251km
Ενημερώθηκε: 28/10/2021 17:20
Διάσπαρτα Nέφη
Διάσπαρτα Nέφη
 Ανεμος από ΒΒΑ
Ανεμος: ΒΒΑ 22 km/h
Θερμοκρασία: 17°C
Σημ. Δρόσου: 5°C
Υγρασία: 45%
Βαρόμετρο: 1023 hPa
Νέφωση: Διάσπαρτα Nέφη
Ορατότητα: 10 km
Λεπτομέρειες Νεφών: Διάσπαρτα Nέφη 762 m
2021/10/28 14:20 LGAL 281420Z 02012KT 9999 FEW025 17/05 Q1023
LGKV - Kavala/Crysoupolis-Elev 5m
Απόσταση από meteothes.gr: ΑΒΑ 144km
Ενημερώθηκε: 28/10/2021 17:20
Αίθριος
Αίθριος
 Ανεμος από Ν
Ανεμος: Ν 7 km/h
Θερμοκρασία: 18°C
Σημ. Δρόσου: 8°C
Υγρασία: 52%
Βαρόμετρο: 1023 hPa
Συνθήκες: Αίθριος
Ορατότητα: πάνω από 10 km
2021/10/28 14:20 LGKV 281420Z 18004KT CAVOK 18/08 Q1023
 
LGSK - Skiathos Island-Elev 15m
Απόσταση από meteothes.gr: ΝΝΑ 168km
Ενημερώθηκε: 28/10/2021 16:50
Μερικώς νεφελώδης
Μερικώς νεφελώδης
 Ανεμος από Β
Ανεμος: Β 17 km/h
Θερμοκρασία: 16°C
Σημ. Δρόσου: 10°C
Υγρασία: 68%
Βαρόμετρο: 1023 hPa
Νέφωση: Μερικώς νεφελώδης
Ορατότητα: 10 km
Λεπτομέρειες Νεφών: Μερικώς νεφελώδης 762 m
2021/10/28 13:50 LGSK 281350Z 01009KT 9999 SCT025 16/10 Q1023
LGLM - Limnos Island-Elev 5m
Απόσταση από meteothes.gr: ΑΝΑ 210km
Ενημερώθηκε: 28/10/2021 17:20
Μερικώς νεφελώδης
Μερικώς νεφελώδης
 Ανεμος από ΒΑ
Ανεμος: ΒΑ 31 km/h, Ριπή: 50 km/h
Θερμοκρασία: 17°C
Σημ. Δρόσου: 9°C
Υγρασία: 59%
Βαρόμετρο: 1023 hPa
Νέφωση: Μερικώς νεφελώδης
Ορατότητα: 10 km
Λεπτομέρειες Νεφών: Μερικώς νεφελώδης 610 m
2021/10/28 14:20 LGLM 281420Z 04017G27KT 9999 SCT020 17/09 Q1023
 
LGMT - Mitilini Island-Elev 17m
Απόσταση από meteothes.gr: ΑΝΑ 358km
Ενημερώθηκε: 28/10/2021 17:20
Αίθριος
Αίθριος
 Ανεμος από Β
Ανεμος: Β 9 km/h
Θερμοκρασία: 19°C
Σημ. Δρόσου: 10°C
Υγρασία: 56%
Βαρόμετρο: 1020 hPa
Συνθήκες: Αίθριος
Ορατότητα: πάνω από 10 km
2021/10/28 14:20 LGMT 281420Z 35005KT CAVOK 19/10 Q1020
LGSY - Skiros Island-Elev 15m
Απόσταση από meteothes.gr: ΝΑ 227km
Ενημερώθηκε: 28/10/2021 16:50
Κυρίως νεφελώδης
Κυρίως νεφελώδης
 Ανεμος από Β
Ανεμος: Β 20 km/h, Ριπή: 39 km/h
Θερμοκρασία: 16°C
Σημ. Δρόσου: 10°C
Υγρασία: 68%
Βαρόμετρο: 1022 hPa
Νέφωση: Κυρίως νεφελώδης
Ορατότητα: 10 km
Λεπτομέρειες Νεφών: Κυρίως νεφελώδης 762 m
2021/10/28 13:50 LGSY 281350Z 01011G21KT 9999 BKN025 16/10 Q1022 BLU
 
LGKZ - Kozani-Elev 628m
Απόσταση από meteothes.gr: ΔΝΔ 102km
Ενημερώθηκε: 28/10/2021 17:20

 Ανεμος από Ν
Ανεμος: Ν 9 km/h
Θερμοκρασία: 14°C
Σημ. Δρόσου: 2°C
Υγρασία: 44%
Βαρόμετρο: 1024 hPa
2021/10/28 14:20 LGKZ 281420Z AUTO 17005KT 110V210 //// // ////// 14/02 Q1024 RE//
LGIO - Ioannina-Elev 476m
Απόσταση από meteothes.gr: ΔΝΔ 209km
Ενημερώθηκε: 28/10/2021 17:20

 Ανεμος από ΒΑ
Ανεμος: ΒΑ 11 km/h
Θερμοκρασία: 19°C
Σημ. Δρόσου: 0°C
Υγρασία: 28%
Βαρόμετρο: 1019 hPa
2021/10/28 14:20 LGIO 281420Z AUTO 04006KT 360V090 //// // ////// 19/00 Q1019 RE//
 
LGZA - Zakinthos-Elev 3m
Απόσταση από meteothes.gr: ΝΝΔ 367km
Ενημερώθηκε: 28/10/2021 16:50
Διάσπαρτα Nέφη
Διάσπαρτα Nέφη
 Ανεμος από μεταβλητός
Ανεμος: μεταβλητός 6 km/h
Θερμοκρασία: 22°C
Σημ. Δρόσου: 13°C
Υγρασία: 57%
Βαρόμετρο: 1017 hPa
Νέφωση: Διάσπαρτα Nέφη
Ορατότητα: 10 km
Λεπτομέρειες Νεφών: Διάσπαρτα Nέφη 610 m
2021/10/28 13:50 LGZA 281350Z VRB03KT 9999 FEW020 22/13 Q1017
LGKR - Corfu Island-Elev 2m
Απόσταση από meteothes.gr: ΔΝΔ 282km
Ενημερώθηκε: 28/10/2021 17:50
Διάσπαρτα Nέφη
Διάσπαρτα Nέφη
 Ανεμος από ΝΔ
Ανεμος: ΝΔ 11 km/h
Θερμοκρασία: 21°C
Σημ. Δρόσου: 12°C
Υγρασία: 57%
Βαρόμετρο: 1018 hPa
Νέφωση: Διάσπαρτα Nέφη
Ορατότητα: 10 km
Λεπτομέρειες Νεφών: Διάσπαρτα Nέφη 610 m
2021/10/28 14:50 LGKR 281450Z 23006KT 9999 FEW020 21/12 Q1018 NOSIG
 
LGSO - Syros Island-Elev 72m
Απόσταση από meteothes.gr: ΝΝΑ 397km
Ενημερώθηκε: 28/10/2021 16:50
Διάσπαρτα Nέφη
Διάσπαρτα Nέφη
 Ανεμος από Β
Ανεμος: Β 44 km/h, Ριπή: 63 km/h
Θερμοκρασία: 17°C
Σημ. Δρόσου: 12°C
Υγρασία: 73%
Βαρόμετρο: 1019 hPa
Νέφωση: Διάσπαρτα Nέφη
Ορατότητα: 10 km
Λεπτομέρειες Νεφών: Διάσπαρτα Nέφη 488 m
2021/10/28 13:50 LGSO 281350Z 36024G34KT 9999 FEW016 17/12 Q1019
LGMK - Mikonos Island-Elev 123m
Απόσταση από meteothes.gr: ΝΝΑ 412km
Ενημερώθηκε: 28/10/2021 17:20
Διάσπαρτα Nέφη
Διάσπαρτα Nέφη
 Ανεμος από Β
Ανεμος: Β 37 km/h, Ριπή: 56 km/h
Θερμοκρασία: 16°C
Σημ. Δρόσου: 12°C
Υγρασία: 77%
Βαρόμετρο: 1018 hPa
Νέφωση: Διάσπαρτα Nέφη
Ορατότητα: 10 km
Λεπτομέρειες Νεφών: Διάσπαρτα Nέφη 366 m
2021/10/28 14:20 LGMK 281420Z 36020G30KT 9999 FEW012 16/12 Q1018
 
LGSR - Santorini Island-Elev 40m
Απόσταση από meteothes.gr: ΝΝΑ 520km
Ενημερώθηκε: 28/10/2021 17:20
Αίθριος
Αίθριος
 Ανεμος από Β
Ανεμος: Β 28 km/h
Θερμοκρασία: 20°C
Σημ. Δρόσου: 11°C
Υγρασία: 56%
Βαρόμετρο: 1018 hPa
Συνθήκες: Αίθριος
Ορατότητα: πάνω από 10 km
2021/10/28 14:20 LGSR 281420Z 36015KT CAVOK 20/11 Q1018
LGKL - Kalamata-Elev 8m
Απόσταση από meteothes.gr: Ν 405km
Ενημερώθηκε: 28/10/2021 17:20
Αίθριος
Αίθριος
 Ανεμος από άπνοια
Ανεμος: άπνοια
Θερμοκρασία: 21°C
Σημ. Δρόσου: 8°C
Υγρασία: 43%
Βαρόμετρο: 1017 hPa
Συνθήκες: Αίθριος
Ορατότητα: πάνω από 10 km
2021/10/28 14:20 LGKL 281420Z 00000KT CAVOK 21/08 Q1017
 
LGIR - Iraklion/Crete-Elev 5m
Απόσταση από meteothes.gr: ΝΝΑ 622km
Ενημερώθηκε: 28/10/2021 17:50
Μερικώς νεφελώδης
Μερικώς νεφελώδης
 Ανεμος από Β
Ανεμος: Β 9 km/h
Θερμοκρασία: 19°C
Σημ. Δρόσου: 14°C
Υγρασία: 73%
Βαρόμετρο: 1018 hPa
Νέφωση: Μερικώς νεφελώδης
Ορατότητα: 10 km
Λεπτομέρειες Νεφών: Διάσπαρτα Nέφη 610 m
Μερικώς νεφελώδης 762 m
2021/10/28 14:50 LGIR 281450Z 35005KT 9999 FEW020 SCT025 19/14 Q1018 NOSIG
LGRP - Rhodes-Elev 5m
Απόσταση από meteothes.gr: ΝΑ 649km
Ενημερώθηκε: 28/10/2021 17:50
Διάσπαρτα Nέφη
Διάσπαρτα Nέφη
 Ανεμος από ΔΝΔ
Ανεμος: ΔΝΔ 15 km/h
Θερμοκρασία: 22°C
Σημ. Δρόσου: 16°C
Υγρασία: 69%
Βαρόμετρο: 1015 hPa
Νέφωση: Διάσπαρτα Nέφη
Ορατότητα: 10 km
Λεπτομέρειες Νεφών: Διάσπαρτα Nέφη 610 m
2021/10/28 14:50 LGRP 281450Z 24008KT 9999 FEW020 22/16 Q1015 NOSIG
 
LWOH - Ohrid/FYROM-Elev 761m
Απόσταση από meteothes.gr: ΔΒΔ 188km
Ενημερώθηκε: 28/10/2021 18:00
Αίθριος
Αίθριος
 Ανεμος από Ν
Ανεμος: Ν 4 km/h
Θερμοκρασία: 14°C
Σημ. Δρόσου: 4°C
Υγρασία: 51%
Βαρόμετρο: 1022 hPa
Συνθήκες: Αίθριος
Ορατότητα: πάνω από 10 km
2021/10/28 15:00 LWOH 281500Z 17002KT CAVOK 14/04 Q1022
LBSF - Sofia/Bulgaria-Elev 595m
Απόσταση από meteothes.gr: Β 227km
Ενημερώθηκε: 28/10/2021 17:30
Αίθριος
Αίθριος
 Ανεμος από ΝΑ
Ανεμος: ΝΑ 13 km/h
Θερμοκρασία: 15°C
Σημ. Δρόσου: 0°C
Υγρασία: 36%
Βαρόμετρο: 1024 hPa
Συνθήκες: Αίθριος
Ορατότητα: πάνω από 10 km
2021/10/28 14:30 LBSF 281430Z 13007KT CAVOK 15/M00 Q1024 NOSIG

(*) Μερικές αναφορές παρουσιάζουν λιγότερα στοιχεία γιατί οι αρχικές είναι ελλιπείς ή έχουν λάθος μορφοποίηση!